Latest Coastal Weather Observations for Gannett Cay

IDQ60701

Issued at 11:45 pm EST Wednesday 22 October 2014 (issued every 10 minutes, with the page automatically refreshed every 10 minutes)

About coastal observations | Map of coastal stations | Coastal observations for QLD | Marine services | Other Formats
Station Details ID: 200831 Name: GANNET CAY Lat: -21.98 Lon: 152.47 Height: 2.3 m
Data from the previous 72 hours. | See also: Recent months for locations in Queensland
Date/Time
EST
Temp

°C
Wind Pressure Rain
since 9am
mm
Weather Cloud Vis
km
Sea
Height
m
Swell
Dir
 
Speed
knots
Gust
knots
hPa Trend Height
m
Period
s
Dir
22/11:30pm 22.1 SE 22 26 1019.9 - - - - - - - - -
22/11:26pm 22.0 SE 22 - 1020.0 - - - - - - - - -
22/11:00pm 22.4 SE 22 26 1020.1 - - - - - - - - -
22/10:30pm 22.3 ESE 22 26 1020.2 - - - - - - - - -
22/10:26pm 22.5 ESE 21 - 1020.4 - - - - - - - - -
22/10:00pm 22.4 ESE 23 27 1020.3 - - - - - - - - -
22/09:30pm 22.5 ESE 23 27 1020.1 - - - - - - - - -
22/09:26pm 22.5 ESE 23 - 1020.2 - - - - - - - - -
22/09:00pm 22.4 SE 23 28 1020.1 - - - - - - - - -
22/08:30pm 22.4 ESE 23 27 1020.0 - - - - - - - - -
22/08:26pm 22.5 ESE 23 - 1020.0 - - - - - - - - -
22/08:00pm 22.6 SE 24 27 1019.6 - - - - - - - - -
22/07:30pm 22.5 SE 22 25 1019.5 - - - - - - - - -
22/07:26pm 22.6 SE 22 - 1019.6 - - - - - - - - -
22/07:00pm 22.5 SE 22 25 1019.3 - - - - - - - - -
22/06:30pm 22.6 SE 23 26 1019.2 - - - - - - - - -
22/06:26pm 22.6 SE 23 - 1019.3 - - - - - - - - -
22/06:00pm 22.6 SE 23 27 1019.1 - - - - - - - - -
22/05:30pm 22.7 SE 23 26 1018.8 - - - - - - - - -
22/05:26pm 22.6 SE 23 - 1018.9 - - - - - - - - -
22/05:00pm 22.7 SE 22 25 1018.6 - - - - - - - - -
22/04:30pm 22.8 SE 21 25 1018.4 - - - - - - - - -
22/04:26pm 22.8 SE 21 - 1018.5 - - - - - - - - -
22/04:00pm 22.7 SE 22 25 1018.2 - - - - - - - - -
22/03:30pm 22.8 SE 20 23 1018.2 - - - - - - - - -
22/03:26pm 22.9 SE 21 - 1018.3 - - - - - - - - -
22/03:00pm 22.7 SE 20 22 1018.2 - - - - - - - - -
22/02:30pm 22.6 SE 20 24 1018.4 - - - - - - - - -
22/02:26pm 22.6 SE 20 - 1018.5 - - - - - - - - -
22/02:00pm 22.7 SSE 21 25 1018.5 - - - - - - - - -
22/01:30pm 22.7 SE 22 25 1018.9 - - - - - - - - -
22/01:26pm 22.7 SSE 22 - 1019.0 - - - - - - - - -
22/01:00pm 22.7 SSE 23 27 1019.0 - - - - - - - - -
22/12:30pm 22.8 SSE 22 25 1019.2 - - - - - - - - -
22/12:26pm 22.8 SSE 22 - 1019.3 - - - - - - - - -
22/12:00pm 22.7 SSE 23 26 1019.6 - - - - - - - - -
22/11:30am 22.8 SE 22 26 1019.9 - - - - - - - - -
22/11:26am 22.8 SE 22 - 1020.1 - - - - - - - - -
22/11:00am 23.0 SE 22 26 1020.3 - - - - - - - - -
22/10:30am 22.6 SE 22 25 1020.6 - - - - - - - - -
22/10:26am 22.6 SE 22 - 1020.7 - - - - - - - - -
22/10:00am 22.6 ESE 24 27 1020.6 - - - - - - - - -
22/09:30am 22.5 SE 23 26 1020.7 - - - - - - - - -
22/09:26am 22.4 SE 23 - 1020.8 - - - - - - - - -
22/09:00am 22.1 SE 22 29 1020.8 - - - - - - - - -
22/08:30am 22.8 SE 18 21 1020.8 - - - - - - - - -
22/08:26am 22.8 ESE 18 - 1020.9 - - - - - - - - -
22/08:00am 22.8 ESE 18 20 1020.8 - - - - - - - - -
22/07:30am 22.7 ESE 17 21 1020.9 - - - - - - - - -
22/07:26am 22.5 ESE 18 - 1021.1 - - - - - - - - -
22/07:00am 22.7 ESE 19 23 1020.7 - - - - - - - - -
22/06:30am 22.6 ESE 20 23 1020.4 - - - - - - - - -
22/06:26am 22.5 E 20 - 1020.4 - - - - - - - - -
22/06:00am 22.4 ESE 20 23 1020.0 - - - - - - - - -
22/05:30am 22.2 ESE 21 25 1019.9 - - - - - - - - -
22/05:26am 22.3 ESE 21 - 1019.9 - - - - - - - - -
22/05:00am 22.1 E 20 24 1019.7 - - - - - - - - -
22/04:30am 22.2 E 20 23 1019.5 - - - - - - - - -
22/04:26am 22.2 E 20 - 1019.6 - - - - - - - - -
22/04:00am 22.2 E 22 25 1019.5 - - - - - - - - -
22/03:30am 22.1 E 21 25 1019.8 - - - - - - - - -
22/03:26am 22.1 E 21 - 1019.9 - - - - - - - - -
22/03:00am 22.1 ESE 20 23 1020.1 - - - - - - - - -
22/02:30am 22.1 ESE 21 24 1020.4 - - - - - - - - -
22/02:26am 22.1 ESE 21 - 1020.5 - - - - - - - - -
22/02:00am 22.1 ESE 19 23 1020.4 - - - - - - - - -
22/01:30am 22.2 ESE 21 25 1020.8 - - - - - - - - -
22/01:26am 22.1 ESE 21 - 1020.9 - - - - - - - - -
22/01:00am 22.1 ESE 21 25 1021.1 - - - - - - - - -
22/12:30am 22.2 ESE 24 27 1021.4 - - - - - - - - -
22/12:26am 22.2 ESE 24 - 1021.5 - - - - - - - - -
22/12:00am 22.3 ESE 22 26 1021.8 - - - - - - - - -
 
Date/Time
EST
Temp

°C
Wind Pressure Rain
since 9am
mm
Weather Cloud Vis
km
Sea
Height
m
Swell
Dir
 
Speed
knots
Gust
knots
hPa Trend Height
m
Period
s
Dir
21/11:30pm 22.3 ESE 23 27 1022.1 - - - - - - - - -
21/11:26pm 22.3 ESE 23 - 1022.2 - - - - - - - - -
21/11:00pm 22.4 ESE 22 26 1022.2 - - - - - - - - -
21/10:30pm 22.4 ESE 22 25 1022.5 - - - - - - - - -
21/10:26pm 22.5 ESE 22 - 1022.6 - - - - - - - - -
21/10:00pm 22.5 ESE 21 25 1022.7 - - - - - - - - -
21/09:30pm 22.4 ESE 22 25 1022.7 - - - - - - - - -
21/09:26pm 22.3 ESE 21 - 1022.8 - - - - - - - - -
21/09:00pm 22.5 SE 23 27 1022.6 - - - - - - - - -
21/08:30pm 22.4 ESE 22 26 1022.5 - - - - - - - - -
21/08:26pm 22.4 ESE 23 - 1022.6 - - - - - - - - -
21/08:00pm 22.4 SE 23 27 1022.1 - - - - - - - - -
21/07:30pm 22.4 ESE 24 28 1021.8 - - - - - - - - -
21/07:26pm 22.4 ESE 24 - 1021.9 - - - - - - - - -
21/07:00pm 22.5 ESE 24 27 1021.6 - - - - - - - - -
21/06:30pm 22.5 ESE 24 28 1021.4 - - - - - - - - -
21/06:26pm 22.4 ESE 24 - 1021.3 - - - - - - - - -
21/06:00pm 22.7 SE 25 29 1020.9 - - - - - - - - -
21/05:30pm 22.7 SE 25 28 1020.7 - - - - - - - - -
21/05:26pm 22.7 ESE 24 - 1020.8 - - - - - - - - -
21/05:00pm 22.7 SE 24 28 1020.5 - - - - - - - - -
21/04:30pm 23.0 SE 24 28 1020.1 - - - - - - - - -
21/04:26pm 22.9 SE 24 - 1020.2 - - - - - - - - -
21/04:00pm 23.0 SE 23 28 1020.0 - - - - - - - - -
21/03:30pm 23.0 SE 23 27 1020.0 - - - - - - - - -
21/03:26pm 23.1 SE 23 - 1020.1 - - - - - - - - -
21/03:00pm 23.1 SE 24 27 1020.0 - - - - - - - - -
21/02:30pm 23.0 ESE 22 25 1020.1 - - - - - - - - -
21/02:26pm 23.0 ESE 21 - 1020.2 - - - - - - - - -
21/02:00pm 23.1 ESE 21 24 1020.2 - - - - - - - - -
21/01:30pm 23.2 ESE 19 25 1020.4 - - - - - - - - -
21/01:26pm 23.1 ESE 18 - 1020.5 - - - - - - - - -
21/01:00pm 21.9 ESE 13 15 1020.9 - - - - - - - - -
21/12:30pm 23.1 ESE 17 21 1021.3 - - - - - - - - -
21/12:26pm 22.9 SE 17 - 1021.3 - - - - - - - - -
21/12:00pm 22.7 ESE 20 23 1021.5 - - - - - - - - -
21/11:30am 22.8 ESE 22 27 1021.8 - - - - - - - - -
21/11:26am 22.8 ESE 23 - 1022.0 - - - - - - - - -
21/11:00am 22.9 ESE 23 27 1022.0 - - - - - - - - -
21/10:30am 23.5 ESE 21 24 1022.3 - - - - - - - - -
21/10:26am 23.5 ESE 21 - 1022.4 - - - - - - - - -
21/10:00am 23.4 ESE 20 25 1022.3 - - - - - - - - -
21/09:30am 23.3 E 17 19 1022.5 - - - - - - - - -
21/09:26am 23.2 E 17 - 1022.5 - - - - - - - - -
21/09:00am 23.1 E 19 23 1022.4 - - - - - - - - -
21/08:30am 23.2 E 23 26 1022.3 - - - - - - - - -
21/08:26am 23.1 E 23 - 1022.4 - - - - - - - - -
21/08:00am 23.1 E 24 29 1022.2 - - - - - - - - -
21/07:30am 22.9 E 23 26 1022.0 - - - - - - - - -
21/07:26am 22.9 E 23 - 1022.1 - - - - - - - - -
21/07:00am 22.8 E 23 26 1021.6 - - - - - - - - -
21/06:30am 22.6 E 23 27 1021.1 - - - - - - - - -
21/06:26am 22.7 E 23 - 1021.2 - - - - - - - - -
21/06:00am 22.5 E 23 28 1020.6 - - - - - - - - -
21/05:30am 22.5 E 25 28 1020.4 - - - - - - - - -
21/05:26am 22.4 E 25 - 1020.4 - - - - - - - - -
21/05:00am 22.4 E 24 27 1020.0 - - - - - - - - -
21/04:30am 22.5 E 25 29 1019.5 - - - - - - - - -
21/04:26am 22.5 E 25 - 1019.6 - - - - - - - - -
21/04:00am 22.6 E 22 26 1019.5 - - - - - - - - -
21/03:30am 22.6 E 19 22 1019.5 - - - - - - - - -
21/03:26am 22.5 E 19 - 1019.6 - - - - - - - - -
21/03:00am 22.6 ESE 18 22 1019.7 - - - - - - - - -
21/02:30am 22.6 ESE 21 23 1019.7 - - - - - - - - -
21/02:26am 22.7 ESE 21 - 1019.8 - - - - - - - - -
21/02:00am 22.6 ESE 21 24 1019.9 - - - - - - - - -
21/01:30am 22.7 ESE 22 25 1020.2 - - - - - - - - -
21/01:26am 22.7 ESE 22 - 1020.4 - - - - - - - - -
21/01:00am 22.6 ESE 22 26 1020.6 - - - - - - - - -
21/12:30am 22.8 ESE 20 24 1021.2 - - - - - - - - -
21/12:26am 22.8 ESE 19 - 1021.3 - - - - - - - - -
21/12:00am 22.8 ESE 18 21 1021.4 - - - - - - - - -
 
Date/Time
EST
Temp

°C
Wind Pressure Rain
since 9am
mm
Weather Cloud Vis
km
Sea
Height
m
Swell
Dir
 
Speed
knots
Gust
knots
hPa Trend Height
m
Period
s
Dir
20/11:30pm 22.8 E 17 19 1021.6 - - - - - - - - -
20/11:26pm 22.8 E 17 - 1021.8 - - - - - - - - -
20/11:00pm 23.0 E 19 21 1022.0 - - - - - - - - -
20/10:30pm 22.9 ESE 18 21 1022.3 - - - - - - - - -
20/10:26pm 22.9 ESE 18 - 1022.4 - - - - - - - - -
20/10:00pm 23.0 E 19 23 1022.5 - - - - - - - - -
20/09:30pm 23.0 E 23 26 1022.4 - - - - - - - - -
20/09:26pm 23.0 E 22 - 1022.5 - - - - - - - - -
20/09:00pm 23.1 E 19 22 1022.2 - - - - - - - - -
20/08:30pm 23.1 E 20 24 1021.8 - - - - - - - - -
20/08:26pm 23.0 ESE 20 - 1021.9 - - - - - - - - -
20/08:00pm 23.0 E 23 26 1021.2 - - - - - - - - -
20/07:30pm 22.9 E 22 26 1020.7 - - - - - - - - -
20/07:26pm 23.1 E 21 - 1020.7 - - - - - - - - -
20/07:00pm 23.0 E 22 25 1020.3 - - - - - - - - -
20/06:30pm 22.9 E 22 27 1020.0 - - - - - - - - -
20/06:26pm 22.9 E 22 - 1020.0 - - - - - - - - -
20/06:00pm 22.6 ESE 21 24 1019.8 - - - - - - - - -
20/05:30pm 22.9 ESE 21 24 1019.7 - - - - - - - - -
20/05:26pm 23.0 ESE 21 - 1019.7 - - - - - - - - -
20/05:00pm 22.8 ESE 22 26 1019.3 - - - - - - - - -
20/04:30pm 22.8 ESE 21 25 1019.1 - - - - - - - - -
20/04:26pm 22.9 ESE 21 - 1019.1 - - - - - - - - -
20/04:00pm 22.8 ESE 21 24 1018.7 - - - - - - - - -
20/03:30pm 23.1 ESE 21 24 1018.6 - - - - - - - - -
20/03:26pm 23.1 ESE 21 - 1018.6 - - - - - - - - -
20/03:00pm 23.2 ESE 21 25 1018.7 - - - - - - - - -
20/02:30pm 23.2 ESE 20 24 1019.0 - - - - - - - - -
20/02:26pm 23.2 ESE 20 - 1019.1 - - - - - - - - -
20/02:00pm 23.2 ESE 20 23 1019.5 - - - - - - - - -
20/01:30pm 23.1 ESE 20 23 1019.8 - - - - - - - - -
20/01:26pm 23.1 ESE 21 - 1020.0 - - - - - - - - -
20/01:00pm 23.1 E 22 26 1020.2 - - - - - - - - -
20/12:30pm 23.1 ESE 21 24 1020.6 - - - - - - - - -
20/12:26pm 23.1 ESE 21 - 1020.8 - - - - - - - - -
20/12:00pm 23.1 ESE 22 25 1021.0 - - - - - - - - -
20/11:30am 23.1 ESE 22 25 1021.2 - - - - - - - - -
20/11:26am 23.2 ESE 22 - 1021.3 - - - - - - - - -
20/11:00am 23.3 ESE 18 24 1021.4 - - - - - - - - -
20/10:30am 23.5 E 16 19 1021.7 - - - - - - - - -
20/10:26am 23.6 E 17 - 1021.8 - - - - - - - - -
20/10:00am 23.4 E 18 21 1021.8 - - - - - - - - -
20/09:30am 23.4 ESE 17 20 1022.1 - - - - - - - - -
20/09:26am 23.4 ESE 18 - 1022.2 - - - - - - - - -
20/09:00am 23.3 ESE 17 19 1022.2 - - - - - - - - -
20/08:30am 23.3 E 19 22 1022.2 - - - - - - - - -
20/08:26am 23.3 E 19 - 1022.4 - - - - - - - - -
20/08:00am 23.1 E 20 23 1022.1 - - - - - - - - -
20/07:30am 22.6 ESE 18 21 1022.0 - - - - - - - - -
20/07:26am 22.6 ESE 17 - 1022.2 - - - - - - - - -
20/07:00am 22.8 ESE 19 21 1021.8 - - - - - - - - -
20/06:30am 22.7 ESE 20 22 1021.5 - - - - - - - - -
20/06:26am 22.8 ESE 20 - 1021.5 - - - - - - - - -
20/06:00am 22.7 ESE 20 23 1021.0 - - - - - - - - -
20/05:30am 22.5 ESE 20 25 1020.6 - - - - - - - - -
20/05:26am 22.5 ESE 20 - 1020.7 - - - - - - - - -
20/05:00am 22.3 ESE 19 23 1020.4 - - - - - - - - -
20/04:47am 22.7 ESE 20 23 1020.3 - - - - - - - - -
20/04:30am 22.2 E 18 20 1020.2 - - - - - - - - -
20/04:26am 22.2 E 19 - 1020.3 - - - - - - - - -
20/04:15am 22.0 E 21 23 1020.2 - - - - - - - - -
20/04:00am 22.3 ESE 14 16 1020.0 - - - - - - - - -
20/03:30am 22.5 ESE 16 19 1019.9 - - - - - - - - -
20/03:26am 22.5 ESE 16 - 1020.0 - - - - - - - - -
20/03:00am 22.5 ESE 16 19 1019.9 - - - - - - - - -
20/02:30am 22.4 ESE 17 20 1020.0 - - - - - - - - -
20/02:26am 22.4 ESE 18 - 1020.1 - - - - - - - - -
20/02:00am 22.4 E 17 20 1020.0 - - - - - - - - -
20/01:30am 22.6 ESE 18 21 1020.3 - - - - - - - - -
20/01:26am 22.6 ESE 18 - 1020.4 - - - - - - - - -
20/01:00am 22.5 E 18 21 1020.8 - - - - - - - - -
20/12:30am 22.3 ESE 17 19 1021.2 - - - - - - - - -
20/12:26am 22.3 ESE 17 - 1021.3 - - - - - - - - -
20/12:00am 22.5 ESE 17 19 1021.6 - - - - - - - - -

Other Formats:

Comma delimited format used in spreadsheet applications
http://www.bom.gov.au/fwo/IDQ60701/IDQ60701.94379.axf

JavaScript Object Notation format (JSON) in row-major order
http://www.bom.gov.au/fwo/IDQ60701/IDQ60701.94379.json